sensor_id;sensor_type;location;lat;lon;timestamp;P1;durP1;ratioP1;P2;durP2;ratioP2
10063;SDS011;5071;52.360;13.134;2022-11-06T00:03:34;8.50;;;3.47;;
10063;SDS011;5071;52.360;13.134;2022-11-06T00:08:38;4.87;;;3.27;;
10063;SDS011;5071;52.360;13.134;2022-11-06T00:13:41;5.50;;;3.50;;
10063;SDS011;5071;52.360;13.134;2022-11-06T00:18:44;5.57;;;3.43;;
10063;SDS011;5071;52.360;13.134;2022-11-06T00:23:48;6.90;;;3.10;;
10063;SDS011;5071;52.360;13.134;2022-11-06T00:28:51;6.20;;;3.40;;
10063;SDS011;5071;52.360;13.134;2022-11-06T00:33:54;5.73;;;3.70;;
10063;SDS011;5071;52.360;13.134;2022-11-06T00:38:59;5.07;;;3.67;;
10063;SDS011;5071;52.360;13.134;2022-11-06T00:44:02;6.57;;;3.73;;
10063;SDS011;5071;52.360;13.134;2022-11-06T00:49:05;5.63;;;3.33;;
10063;SDS011;5071;52.360;13.134;2022-11-06T00:54:10;8.97;;;3.33;;
10063;SDS011;5071;52.360;13.134;2022-11-06T00:59:13;6.40;;;3.43;;
10063;SDS011;5071;52.360;13.134;2022-11-06T01:04:15;6.13;;;3.43;;
10063;SDS011;5071;52.360;13.134;2022-11-06T01:09:21;8.90;;;4.00;;
10063;SDS011;5071;52.360;13.134;2022-11-06T01:14:24;6.97;;;3.90;;
10063;SDS011;5071;52.360;13.134;2022-11-06T01:19:26;5.60;;;4.27;;
10063;SDS011;5071;52.360;13.134;2022-11-06T01:24:30;9.73;;;5.40;;
10063;SDS011;5071;52.360;13.134;2022-11-06T01:29:32;7.30;;;4.80;;
10063;SDS011;5071;52.360;13.134;2022-11-06T01:34:35;8.97;;;4.87;;
10063;SDS011;5071;52.360;13.134;2022-11-06T01:39:38;8.23;;;5.27;;
10063;SDS011;5071;52.360;13.134;2022-11-06T01:50:14;9.13;;;5.53;;
10063;SDS011;5071;52.360;13.134;2022-11-06T01:55:20;10.87;;;5.17;;
10063;SDS011;5071;52.360;13.134;2022-11-06T02:00:26;15.70;;;6.27;;
10063;SDS011;5071;52.360;13.134;2022-11-06T02:05:28;9.13;;;4.70;;
10063;SDS011;5071;52.360;13.134;2022-11-06T02:10:32;14.13;;;6.47;;
10063;SDS011;5071;52.360;13.134;2022-11-06T02:15:37;12.67;;;6.23;;
10063;SDS011;5071;52.360;13.134;2022-11-06T02:20:50;15.47;;;7.23;;
10063;SDS011;5071;52.360;13.134;2022-11-06T02:26:12;18.77;;;7.20;;
10063;SDS011;5071;52.360;13.134;2022-11-06T02:31:24;13.23;;;6.53;;
10063;SDS011;5071;52.360;13.134;2022-11-06T02:36:29;12.27;;;5.77;;
10063;SDS011;5071;52.360;13.134;2022-11-06T02:41:36;15.20;;;6.90;;
10063;SDS011;5071;52.360;13.134;2022-11-06T02:46:45;11.27;;;6.10;;
10063;SDS011;5071;52.360;13.134;2022-11-06T02:51:52;10.60;;;6.40;;
10063;SDS011;5071;52.360;13.134;2022-11-06T02:56:58;12.70;;;6.07;;
10063;SDS011;5071;52.360;13.134;2022-11-06T03:02:06;13.53;;;6.60;;
10063;SDS011;5071;52.360;13.134;2022-11-06T03:07:17;10.10;;;5.77;;
10063;SDS011;5071;52.360;13.134;2022-11-06T03:12:24;10.50;;;6.10;;
10063;SDS011;5071;52.360;13.134;2022-11-06T03:17:36;18.17;;;6.20;;
10063;SDS011;5071;52.360;13.134;2022-11-06T03:22:45;9.03;;;5.90;;
10063;SDS011;5071;52.360;13.134;2022-11-06T03:27:58;14.70;;;6.10;;
10063;SDS011;5071;52.360;13.134;2022-11-06T03:33:06;13.13;;;6.17;;
10063;SDS011;5071;52.360;13.134;2022-11-06T03:38:15;16.97;;;6.93;;
10063;SDS011;5071;52.360;13.134;2022-11-06T03:43:21;8.97;;;5.47;;
10063;SDS011;5071;52.360;13.134;2022-11-06T03:48:29;13.43;;;5.77;;
10063;SDS011;5071;52.360;13.134;2022-11-06T03:53:35;15.13;;;6.57;;
10063;SDS011;5071;52.360;13.134;2022-11-06T03:58:44;14.60;;;6.10;;
10063;SDS011;5071;52.360;13.134;2022-11-06T04:03:50;15.60;;;7.03;;
10063;SDS011;5071;52.360;13.134;2022-11-06T04:08:58;14.10;;;6.50;;
10063;SDS011;5071;52.360;13.134;2022-11-06T04:14:03;14.90;;;7.53;;
10063;SDS011;5071;52.360;13.134;2022-11-06T04:19:09;11.97;;;6.23;;
10063;SDS011;5071;52.360;13.134;2022-11-06T04:24:21;9.50;;;6.20;;
10063;SDS011;5071;52.360;13.134;2022-11-06T04:29:35;15.57;;;6.53;;
10063;SDS011;5071;52.360;13.134;2022-11-06T04:34:52;18.77;;;5.90;;
10063;SDS011;5071;52.360;13.134;2022-11-06T04:40:01;13.17;;;5.80;;
10063;SDS011;5071;52.360;13.134;2022-11-06T04:45:09;10.20;;;6.10;;
10063;SDS011;5071;52.360;13.134;2022-11-06T04:50:16;12.80;;;6.53;;
10063;SDS011;5071;52.360;13.134;2022-11-06T04:55:21;15.00;;;6.33;;
10063;SDS011;5071;52.360;13.134;2022-11-06T05:00:23;16.17;;;6.80;;
10063;SDS011;5071;52.360;13.134;2022-11-06T05:05:26;15.00;;;6.77;;
10063;SDS011;5071;52.360;13.134;2022-11-06T05:10:28;10.73;;;6.53;;
10063;SDS011;5071;52.360;13.134;2022-11-06T05:15:30;13.27;;;6.83;;
10063;SDS011;5071;52.360;13.134;2022-11-06T05:20:33;14.10;;;6.97;;
10063;SDS011;5071;52.360;13.134;2022-11-06T05:25:36;13.57;;;6.80;;
10063;SDS011;5071;52.360;13.134;2022-11-06T05:30:39;15.80;;;5.53;;
10063;SDS011;5071;52.360;13.134;2022-11-06T05:35:42;17.50;;;6.17;;
10063;SDS011;5071;52.360;13.134;2022-11-06T05:40:45;11.53;;;7.23;;
10063;SDS011;5071;52.360;13.134;2022-11-06T05:45:47;9.17;;;6.10;;
10063;SDS011;5071;52.360;13.134;2022-11-06T05:50:50;16.43;;;6.73;;
10063;SDS011;5071;52.360;13.134;2022-11-06T05:55:52;11.53;;;6.00;;
10063;SDS011;5071;52.360;13.134;2022-11-06T06:00:54;12.60;;;6.90;;
10063;SDS011;5071;52.360;13.134;2022-11-06T06:05:58;10.50;;;5.80;;
10063;SDS011;5071;52.360;13.134;2022-11-06T06:11:03;11.13;;;5.80;;
10063;SDS011;5071;52.360;13.134;2022-11-06T06:16:06;14.10;;;6.77;;
10063;SDS011;5071;52.360;13.134;2022-11-06T06:21:09;11.97;;;6.43;;
10063;SDS011;5071;52.360;13.134;2022-11-06T06:26:11;11.80;;;6.63;;
10063;SDS011;5071;52.360;13.134;2022-11-06T06:31:12;13.77;;;6.80;;
10063;SDS011;5071;52.360;13.134;2022-11-06T06:36:15;12.13;;;6.37;;
10063;SDS011;5071;52.360;13.134;2022-11-06T06:41:17;16.17;;;8.10;;
10063;SDS011;5071;52.360;13.134;2022-11-06T06:46:19;12.13;;;6.43;;
10063;SDS011;5071;52.360;13.134;2022-11-06T06:51:22;14.93;;;7.27;;
10063;SDS011;5071;52.360;13.134;2022-11-06T06:56:24;12.97;;;6.60;;
10063;SDS011;5071;52.360;13.134;2022-11-06T07:01:26;12.50;;;6.27;;
10063;SDS011;5071;52.360;13.134;2022-11-06T07:06:31;10.53;;;5.87;;
10063;SDS011;5071;52.360;13.134;2022-11-06T07:11:32;14.07;;;7.73;;
10063;SDS011;5071;52.360;13.134;2022-11-06T07:16:34;10.57;;;6.27;;
10063;SDS011;5071;52.360;13.134;2022-11-06T07:21:37;14.07;;;7.43;;
10063;SDS011;5071;52.360;13.134;2022-11-06T07:26:39;12.77;;;7.47;;
10063;SDS011;5071;52.360;13.134;2022-11-06T07:31:41;14.93;;;7.50;;
10063;SDS011;5071;52.360;13.134;2022-11-06T07:36:44;20.70;;;8.23;;
10063;SDS011;5071;52.360;13.134;2022-11-06T07:41:46;13.87;;;7.20;;
10063;SDS011;5071;52.360;13.134;2022-11-06T07:46:48;19.50;;;8.23;;
10063;SDS011;5071;52.360;13.134;2022-11-06T07:51:51;16.60;;;7.90;;
10063;SDS011;5071;52.360;13.134;2022-11-06T07:56:53;13.37;;;8.47;;
10063;SDS011;5071;52.360;13.134;2022-11-06T08:01:56;18.17;;;8.50;;
10063;SDS011;5071;52.360;13.134;2022-11-06T08:07:00;14.17;;;7.80;;
10063;SDS011;5071;52.360;13.134;2022-11-06T08:12:02;15.40;;;8.03;;
10063;SDS011;5071;52.360;13.134;2022-11-06T08:17:06;13.03;;;7.17;;
10063;SDS011;5071;52.360;13.134;2022-11-06T08:22:12;15.23;;;7.57;;
10063;SDS011;5071;52.360;13.134;2022-11-06T08:27:14;12.67;;;6.73;;
10063;SDS011;5071;52.360;13.134;2022-11-06T08:32:16;14.97;;;7.60;;
10063;SDS011;5071;52.360;13.134;2022-11-06T08:37:19;9.23;;;5.80;;
10063;SDS011;5071;52.360;13.134;2022-11-06T08:42:22;10.90;;;6.17;;
10063;SDS011;5071;52.360;13.134;2022-11-06T08:47:24;7.80;;;5.27;;
10063;SDS011;5071;52.360;13.134;2022-11-06T08:52:28;6.87;;;5.13;;
10063;SDS011;5071;52.360;13.134;2022-11-06T08:57:34;8.90;;;5.27;;
10063;SDS011;5071;52.360;13.134;2022-11-06T09:02:36;9.50;;;5.37;;
10063;SDS011;5071;52.360;13.134;2022-11-06T09:07:41;11.37;;;5.17;;
10063;SDS011;5071;52.360;13.134;2022-11-06T09:12:42;10.87;;;5.63;;
10063;SDS011;5071;52.360;13.134;2022-11-06T09:17:45;6.57;;;4.00;;
10063;SDS011;5071;52.360;13.134;2022-11-06T09:22:50;5.37;;;4.03;;
10063;SDS011;5071;52.360;13.134;2022-11-06T09:27:52;6.60;;;3.70;;
10063;SDS011;5071;52.360;13.134;2022-11-06T09:33:00;7.10;;;4.23;;
10063;SDS011;5071;52.360;13.134;2022-11-06T09:38:05;6.53;;;3.90;;
10063;SDS011;5071;52.360;13.134;2022-11-06T09:43:15;5.60;;;3.63;;
10063;SDS011;5071;52.360;13.134;2022-11-06T09:48:43;6.33;;;4.10;;
10063;SDS011;5071;52.360;13.134;2022-11-06T09:53:52;5.20;;;3.83;;
10063;SDS011;5071;52.360;13.134;2022-11-06T09:58:58;6.03;;;3.33;;
10063;SDS011;5071;52.360;13.134;2022-11-06T10:04:04;6.47;;;2.80;;
10063;SDS011;5071;52.360;13.134;2022-11-06T10:09:09;4.77;;;2.97;;
10063;SDS011;5071;52.360;13.134;2022-11-06T10:14:14;3.70;;;2.73;;
10063;SDS011;5071;52.360;13.134;2022-11-06T10:19:27;4.53;;;2.70;;
10063;SDS011;5071;52.360;13.134;2022-11-06T10:24:41;3.33;;;2.53;;
10063;SDS011;5071;52.360;13.134;2022-11-06T10:29:50;6.30;;;3.17;;
10063;SDS011;5071;52.360;13.134;2022-11-06T10:35:02;2.87;;;2.37;;
10063;SDS011;5071;52.360;13.134;2022-11-06T10:40:13;3.10;;;2.43;;
10063;SDS011;5071;52.360;13.134;2022-11-06T10:45:18;3.47;;;2.67;;
10063;SDS011;5071;52.360;13.134;2022-11-06T10:50:23;3.80;;;2.30;;
10063;SDS011;5071;52.360;13.134;2022-11-06T10:55:42;3.03;;;2.27;;
10063;SDS011;5071;52.360;13.134;2022-11-06T11:00:58;4.00;;;3.00;;
10063;SDS011;5071;52.360;13.134;2022-11-06T11:06:02;3.00;;;2.07;;
10063;SDS011;5071;52.360;13.134;2022-11-06T11:11:08;5.10;;;2.63;;
10063;SDS011;5071;52.360;13.134;2022-11-06T11:16:20;5.77;;;2.57;;
10063;SDS011;5071;52.360;13.134;2022-11-06T11:21:24;5.50;;;2.50;;
10063;SDS011;5071;52.360;13.134;2022-11-06T11:26:28;3.13;;;2.60;;
10063;SDS011;5071;52.360;13.134;2022-11-06T11:31:32;3.43;;;2.60;;
10063;SDS011;5071;52.360;13.134;2022-11-06T11:36:52;3.13;;;2.40;;
10063;SDS011;5071;52.360;13.134;2022-11-06T11:47:25;3.40;;;2.20;;
10063;SDS011;5071;52.360;13.134;2022-11-06T11:52:26;6.60;;;2.40;;
10063;SDS011;5071;52.360;13.134;2022-11-06T11:57:30;6.40;;;2.43;;
10063;SDS011;5071;52.360;13.134;2022-11-06T12:02:33;2.70;;;2.00;;
10063;SDS011;5071;52.360;13.134;2022-11-06T12:07:42;4.70;;;2.13;;
10063;SDS011;5071;52.360;13.134;2022-11-06T12:12:49;4.27;;;2.10;;
10063;SDS011;5071;52.360;13.134;2022-11-06T12:17:53;2.50;;;1.90;;
10063;SDS011;5071;52.360;13.134;2022-11-06T12:22:58;3.73;;;2.10;;
10063;SDS011;5071;52.360;13.134;2022-11-06T12:28:05;2.50;;;1.93;;
10063;SDS011;5071;52.360;13.134;2022-11-06T12:33:14;2.63;;;2.17;;
10063;SDS011;5071;52.360;13.134;2022-11-06T12:38:22;6.27;;;2.83;;
10063;SDS011;5071;52.360;13.134;2022-11-06T12:43:30;4.23;;;2.00;;
10063;SDS011;5071;52.360;13.134;2022-11-06T12:48:41;2.50;;;1.93;;
10063;SDS011;5071;52.360;13.134;2022-11-06T12:53:54;4.83;;;1.90;;
10063;SDS011;5071;52.360;13.134;2022-11-06T12:59:17;4.30;;;1.90;;
10063;SDS011;5071;52.360;13.134;2022-11-06T13:04:31;5.30;;;2.00;;
10063;SDS011;5071;52.360;13.134;2022-11-06T13:09:42;2.53;;;1.40;;
10063;SDS011;5071;52.360;13.134;2022-11-06T13:14:58;4.60;;;1.90;;
10063;SDS011;5071;52.360;13.134;2022-11-06T13:20:10;3.50;;;2.33;;
10063;SDS011;5071;52.360;13.134;2022-11-06T13:25:19;2.97;;;1.70;;
10063;SDS011;5071;52.360;13.134;2022-11-06T13:30:26;4.93;;;2.20;;
10063;SDS011;5071;52.360;13.134;2022-11-06T13:35:31;2.87;;;1.77;;
10063;SDS011;5071;52.360;13.134;2022-11-06T13:40:35;3.93;;;2.10;;
10063;SDS011;5071;52.360;13.134;2022-11-06T13:45:44;3.33;;;1.80;;
10063;SDS011;5071;52.360;13.134;2022-11-06T13:50:53;2.70;;;1.60;;
10063;SDS011;5071;52.360;13.134;2022-11-06T13:56:04;3.40;;;2.03;;
10063;SDS011;5071;52.360;13.134;2022-11-06T14:01:14;1.73;;;1.63;;
10063;SDS011;5071;52.360;13.134;2022-11-06T14:06:26;8.00;;;2.30;;
10063;SDS011;5071;52.360;13.134;2022-11-06T14:11:32;3.83;;;1.43;;
10063;SDS011;5071;52.360;13.134;2022-11-06T14:16:39;3.00;;;1.60;;
10063;SDS011;5071;52.360;13.134;2022-11-06T14:21:45;3.73;;;1.73;;
10063;SDS011;5071;52.360;13.134;2022-11-06T14:26:49;4.20;;;1.77;;
10063;SDS011;5071;52.360;13.134;2022-11-06T14:31:58;2.80;;;1.50;;
10063;SDS011;5071;52.360;13.134;2022-11-06T14:42:45;3.67;;;1.43;;
10063;SDS011;5071;52.360;13.134;2022-11-06T14:47:51;3.80;;;1.77;;
10063;SDS011;5071;52.360;13.134;2022-11-06T14:52:55;4.47;;;1.70;;
10063;SDS011;5071;52.360;13.134;2022-11-06T14:58:11;2.63;;;1.13;;
10063;SDS011;5071;52.360;13.134;2022-11-06T15:03:21;4.43;;;1.73;;
10063;SDS011;5071;52.360;13.134;2022-11-06T15:13:59;3.03;;;1.47;;
10063;SDS011;5071;52.360;13.134;2022-11-06T15:19:40;4.67;;;1.60;;
10063;SDS011;5071;52.360;13.134;2022-11-06T15:24:46;4.43;;;1.60;;
10063;SDS011;5071;52.360;13.134;2022-11-06T15:29:53;3.40;;;1.77;;
10063;SDS011;5071;52.360;13.134;2022-11-06T15:35:00;1.93;;;1.60;;
10063;SDS011;5071;52.360;13.134;2022-11-06T15:40:19;2.37;;;1.50;;
10063;SDS011;5071;52.360;13.134;2022-11-06T15:45:24;2.50;;;1.63;;
10063;SDS011;5071;52.360;13.134;2022-11-06T15:50:28;2.60;;;1.77;;
10063;SDS011;5071;52.360;13.134;2022-11-06T15:55:32;2.73;;;1.30;;
10063;SDS011;5071;52.360;13.134;2022-11-06T16:00:38;2.87;;;1.80;;
10063;SDS011;5071;52.360;13.134;2022-11-06T16:05:42;3.73;;;1.70;;
10063;SDS011;5071;52.360;13.134;2022-11-06T16:10:45;1.60;;;1.47;;
10063;SDS011;5071;52.360;13.134;2022-11-06T16:15:51;4.60;;;1.73;;
10063;SDS011;5071;52.360;13.134;2022-11-06T16:20:57;1.77;;;1.30;;
10063;SDS011;5071;52.360;13.134;2022-11-06T16:26:02;3.10;;;1.60;;
10063;SDS011;5071;52.360;13.134;2022-11-06T16:31:07;4.30;;;1.97;;
10063;SDS011;5071;52.360;13.134;2022-11-06T16:36:15;2.67;;;1.60;;
10063;SDS011;5071;52.360;13.134;2022-11-06T16:41:16;2.40;;;1.70;;
10063;SDS011;5071;52.360;13.134;2022-11-06T16:46:19;2.40;;;1.90;;
10063;SDS011;5071;52.360;13.134;2022-11-06T16:51:29;4.20;;;2.20;;
10063;SDS011;5071;52.360;13.134;2022-11-06T16:56:32;1.80;;;1.60;;
10063;SDS011;5071;52.360;13.134;2022-11-06T17:01:35;3.67;;;2.00;;
10063;SDS011;5071;52.360;13.134;2022-11-06T17:06:41;3.17;;;2.17;;
10063;SDS011;5071;52.360;13.134;2022-11-06T17:11:44;2.03;;;1.63;;
10063;SDS011;5071;52.360;13.134;2022-11-06T17:16:48;2.57;;;1.70;;
10063;SDS011;5071;52.360;13.134;2022-11-06T17:21:52;4.03;;;2.30;;
10063;SDS011;5071;52.360;13.134;2022-11-06T17:26:54;3.30;;;2.10;;
10063;SDS011;5071;52.360;13.134;2022-11-06T17:31:56;3.13;;;1.77;;
10063;SDS011;5071;52.360;13.134;2022-11-06T17:36:59;3.63;;;1.97;;
10063;SDS011;5071;52.360;13.134;2022-11-06T17:42:01;2.60;;;1.83;;
10063;SDS011;5071;52.360;13.134;2022-11-06T17:47:03;2.90;;;2.10;;
10063;SDS011;5071;52.360;13.134;2022-11-06T17:52:06;4.90;;;1.90;;
10063;SDS011;5071;52.360;13.134;2022-11-06T17:57:08;3.87;;;2.43;;
10063;SDS011;5071;52.360;13.134;2022-11-06T18:02:10;3.50;;;2.67;;
10063;SDS011;5071;52.360;13.134;2022-11-06T18:07:15;3.63;;;2.50;;
10063;SDS011;5071;52.360;13.134;2022-11-06T18:12:18;2.70;;;1.97;;
10063;SDS011;5071;52.360;13.134;2022-11-06T18:17:20;4.43;;;2.17;;
10063;SDS011;5071;52.360;13.134;2022-11-06T18:22:23;3.13;;;2.03;;
10063;SDS011;5071;52.360;13.134;2022-11-06T18:27:25;3.80;;;2.43;;
10063;SDS011;5071;52.360;13.134;2022-11-06T18:32:26;2.83;;;1.80;;
10063;SDS011;5071;52.360;13.134;2022-11-06T18:37:29;4.37;;;3.03;;
10063;SDS011;5071;52.360;13.134;2022-11-06T18:42:31;4.43;;;3.10;;
10063;SDS011;5071;52.360;13.134;2022-11-06T18:47:33;3.87;;;2.60;;
10063;SDS011;5071;52.360;13.134;2022-11-06T18:52:37;4.17;;;2.63;;
10063;SDS011;5071;52.360;13.134;2022-11-06T18:57:57;5.40;;;2.63;;
10063;SDS011;5071;52.360;13.134;2022-11-06T19:03:00;4.30;;;2.73;;
10063;SDS011;5071;52.360;13.134;2022-11-06T19:08:03;5.07;;;2.77;;
10063;SDS011;5071;52.360;13.134;2022-11-06T19:13:05;5.70;;;3.43;;
10063;SDS011;5071;52.360;13.134;2022-11-06T19:18:07;4.27;;;3.10;;
10063;SDS011;5071;52.360;13.134;2022-11-06T19:23:11;4.53;;;3.17;;
10063;SDS011;5071;52.360;13.134;2022-11-06T19:28:15;6.57;;;3.87;;
10063;SDS011;5071;52.360;13.134;2022-11-06T19:33:17;6.10;;;3.80;;
10063;SDS011;5071;52.360;13.134;2022-11-06T19:38:21;7.20;;;3.40;;
10063;SDS011;5071;52.360;13.134;2022-11-06T19:43:23;5.07;;;3.37;;
10063;SDS011;5071;52.360;13.134;2022-11-06T19:48:26;6.40;;;4.10;;
10063;SDS011;5071;52.360;13.134;2022-11-06T19:53:29;5.80;;;4.20;;
10063;SDS011;5071;52.360;13.134;2022-11-06T19:58:31;11.87;;;4.20;;
10063;SDS011;5071;52.360;13.134;2022-11-06T20:03:33;7.70;;;4.03;;
10063;SDS011;5071;52.360;13.134;2022-11-06T20:08:37;7.43;;;4.37;;
10063;SDS011;5071;52.360;13.134;2022-11-06T20:13:39;8.07;;;5.03;;
10063;SDS011;5071;52.360;13.134;2022-11-06T20:18:42;7.10;;;4.23;;
10063;SDS011;5071;52.360;13.134;2022-11-06T20:23:46;6.93;;;4.37;;
10063;SDS011;5071;52.360;13.134;2022-11-06T20:28:48;8.20;;;5.03;;
10063;SDS011;5071;52.360;13.134;2022-11-06T20:33:50;8.00;;;5.33;;
10063;SDS011;5071;52.360;13.134;2022-11-06T20:38:58;8.17;;;5.43;;
10063;SDS011;5071;52.360;13.134;2022-11-06T20:44:01;8.40;;;4.97;;
10063;SDS011;5071;52.360;13.134;2022-11-06T20:49:03;8.63;;;5.13;;
10063;SDS011;5071;52.360;13.134;2022-11-06T20:54:06;8.83;;;4.83;;
10063;SDS011;5071;52.360;13.134;2022-11-06T20:59:08;8.20;;;5.30;;
10063;SDS011;5071;52.360;13.134;2022-11-06T21:04:11;10.23;;;5.73;;
10063;SDS011;5071;52.360;13.134;2022-11-06T21:09:17;9.07;;;6.17;;
10063;SDS011;5071;52.360;13.134;2022-11-06T21:14:20;8.57;;;5.57;;
10063;SDS011;5071;52.360;13.134;2022-11-06T21:19:24;9.73;;;5.33;;
10063;SDS011;5071;52.360;13.134;2022-11-06T21:24:27;10.03;;;5.83;;
10063;SDS011;5071;52.360;13.134;2022-11-06T21:29:28;10.07;;;5.60;;
10063;SDS011;5071;52.360;13.134;2022-11-06T21:34:30;10.93;;;5.90;;
10063;SDS011;5071;52.360;13.134;2022-11-06T21:39:33;11.00;;;5.67;;
10063;SDS011;5071;52.360;13.134;2022-11-06T21:44:37;11.73;;;6.03;;
10063;SDS011;5071;52.360;13.134;2022-11-06T21:49:39;10.50;;;5.60;;
10063;SDS011;5071;52.360;13.134;2022-11-06T21:54:42;11.13;;;5.93;;
10063;SDS011;5071;52.360;13.134;2022-11-06T21:59:45;10.13;;;6.00;;
10063;SDS011;5071;52.360;13.134;2022-11-06T22:04:46;9.00;;;6.13;;
10063;SDS011;5071;52.360;13.134;2022-11-06T22:09:51;11.20;;;6.03;;
10063;SDS011;5071;52.360;13.134;2022-11-06T22:14:53;11.33;;;7.23;;
10063;SDS011;5071;52.360;13.134;2022-11-06T22:19:55;9.97;;;6.63;;
10063;SDS011;5071;52.360;13.134;2022-11-06T22:24:59;8.77;;;5.80;;
10063;SDS011;5071;52.360;13.134;2022-11-06T22:30:00;10.77;;;6.77;;
10063;SDS011;5071;52.360;13.134;2022-11-06T22:35:02;12.30;;;7.67;;
10063;SDS011;5071;52.360;13.134;2022-11-06T22:40:07;11.73;;;6.33;;
10063;SDS011;5071;52.360;13.134;2022-11-06T22:45:10;11.10;;;6.80;;
10063;SDS011;5071;52.360;13.134;2022-11-06T22:50:12;10.43;;;6.90;;
10063;SDS011;5071;52.360;13.134;2022-11-06T22:55:16;12.93;;;7.13;;
10063;SDS011;5071;52.360;13.134;2022-11-06T23:00:18;13.33;;;7.80;;
10063;SDS011;5071;52.360;13.134;2022-11-06T23:05:22;12.33;;;6.77;;
10063;SDS011;5071;52.360;13.134;2022-11-06T23:10:26;12.80;;;7.13;;
10063;SDS011;5071;52.360;13.134;2022-11-06T23:15:28;12.70;;;7.40;;
10063;SDS011;5071;52.360;13.134;2022-11-06T23:20:30;9.13;;;5.50;;
10063;SDS011;5071;52.360;13.134;2022-11-06T23:25:35;9.97;;;6.83;;
10063;SDS011;5071;52.360;13.134;2022-11-06T23:30:37;10.97;;;6.43;;
10063;SDS011;5071;52.360;13.134;2022-11-06T23:35:39;8.53;;;5.73;;
10063;SDS011;5071;52.360;13.134;2022-11-06T23:40:42;13.43;;;6.80;;
10063;SDS011;5071;52.360;13.134;2022-11-06T23:45:45;11.63;;;6.37;;
10063;SDS011;5071;52.360;13.134;2022-11-06T23:50:47;10.67;;;6.13;;
10063;SDS011;5071;52.360;13.134;2022-11-06T23:55:51;13.37;;;6.10;;
